createdAt,value
2022-12-15T00:02:15.591Z,96255.72
2022-12-15T00:05:00.796Z,96280.91
2022-12-15T00:07:45.964Z,96267.00
2022-12-15T00:10:31.212Z,96273.22
2022-12-15T00:13:16.370Z,96267.47
2022-12-15T00:16:01.092Z,96263.31
2022-12-15T00:18:46.284Z,96261.56
2022-12-15T00:21:31.430Z,96259.75
2022-12-15T00:24:16.195Z,96268.91
2022-12-15T00:27:00.943Z,96277.00
2022-12-15T00:29:46.355Z,96277.31
2022-12-15T00:32:31.565Z,96283.50
2022-12-15T00:35:16.405Z,96289.72
2022-12-15T00:38:01.691Z,96284.44
2022-12-15T00:40:28.226Z,96288.66
2022-12-15T00:42:54.726Z,96279.81
2022-12-15T00:45:21.433Z,96282.75
2022-12-15T00:47:47.958Z,96289.88
2022-12-15T00:50:33.229Z,96292.22
2022-12-15T00:53:18.021Z,96273.31
2022-12-15T00:56:02.686Z,96274.25
2022-12-15T00:58:47.772Z,96262.50
2022-12-15T01:01:32.751Z,96270.88
2022-12-15T01:04:17.861Z,96298.13
2022-12-15T01:07:02.994Z,96296.13
2022-12-15T01:09:47.973Z,96300.34
2022-12-15T01:12:33.396Z,96292.91
2022-12-15T01:15:18.189Z,96305.03
2022-12-15T01:18:03.092Z,96298.50
2022-12-15T01:20:34.614Z,96284.38
2022-12-15T01:23:01.266Z,96279.69
2022-12-15T01:25:28.052Z,96298.13
2022-12-15T01:27:54.974Z,96296.44
2022-12-15T01:30:26.160Z,96297.88
2022-12-15T01:32:53.514Z,96302.06
2022-12-15T01:35:20.020Z,96305.50
2022-12-15T01:37:46.564Z,96302.88
2022-12-15T01:40:37.132Z,96323.25
2022-12-15T01:43:03.889Z,96326.34
2022-12-15T01:45:30.341Z,96326.06
2022-12-15T01:48:07.512Z,96333.97
2022-12-15T01:50:37.332Z,96327.81
2022-12-15T01:53:03.986Z,96330.63
2022-12-15T01:55:32.325Z,96346.28
2022-12-15T01:58:03.576Z,96348.97
2022-12-15T02:00:31.199Z,96342.75
2022-12-15T02:03:00.526Z,96338.72
2022-12-15T02:05:29.246Z,96335.31
2022-12-15T02:07:56.106Z,96328.16
2022-12-15T02:10:28.836Z,96336.25
2022-12-15T02:13:29.077Z,96340.25
2022-12-15T02:16:30.148Z,96339.19
2022-12-15T02:19:15.034Z,96337.47
2022-12-15T02:22:07.611Z,96343.06
2022-12-15T02:25:00.148Z,96347.69
2022-12-15T02:27:44.619Z,96339.00
2022-12-15T02:31:12.034Z,96334.34
2022-12-15T02:33:52.661Z,96338.25
2022-12-15T02:36:26.190Z,96347.06
2022-12-15T02:38:52.781Z,96339.78
2022-12-15T02:41:35.603Z,96324.09
2022-12-15T02:44:26.550Z,96328.69
2022-12-15T02:47:17.914Z,96339.22
2022-12-15T02:50:11.569Z,96336.22
2022-12-15T02:52:59.323Z,96326.63
2022-12-15T02:55:25.815Z,96343.19
2022-12-15T02:58:01.190Z,96351.63
2022-12-15T03:00:29.803Z,96350.03
2022-12-15T03:02:56.929Z,96349.31
2022-12-15T03:05:25.365Z,96362.53
2022-12-15T03:07:54.349Z,96363.84
2022-12-15T03:10:24.628Z,96367.53
2022-12-15T03:12:51.968Z,96365.84
2022-12-15T03:15:18.562Z,96350.75
2022-12-15T03:17:45.165Z,96335.84
2022-12-15T03:20:12.071Z,96329.09
2022-12-15T03:22:39.858Z,96324.31
2022-12-15T03:25:06.749Z,96326.63
2022-12-15T03:27:33.430Z,96333.63
2022-12-15T03:30:00.098Z,96336.13
2022-12-15T03:32:26.661Z,96337.50
2022-12-15T03:34:53.212Z,96345.44
2022-12-15T03:37:19.728Z,96338.59
2022-12-15T03:39:46.292Z,96333.63
2022-12-15T03:42:12.806Z,96336.31
2022-12-15T03:44:39.357Z,96345.31
2022-12-15T03:47:06.006Z,96356.63
2022-12-15T03:49:32.564Z,96357.16
2022-12-15T03:51:59.076Z,96364.16
2022-12-15T03:54:25.613Z,96365.69
2022-12-15T03:56:52.158Z,96368.03
2022-12-15T03:59:19.031Z,96376.72
2022-12-15T04:01:48.191Z,96371.78
2022-12-15T04:04:15.322Z,96367.59
2022-12-15T04:06:41.833Z,96368.88
2022-12-15T04:09:08.516Z,96366.03
2022-12-15T04:11:35.108Z,96372.72
2022-12-15T04:14:02.229Z,96369.31
2022-12-15T04:16:29.656Z,96379.72
2022-12-15T04:19:14.839Z,96371.63
2022-12-15T04:21:41.358Z,96366.03
2022-12-15T04:24:26.457Z,96371.63
2022-12-15T04:27:11.368Z,96380.34
2022-12-15T04:29:56.270Z,96378.97
2022-12-15T04:32:42.651Z,96387.19
2022-12-15T04:35:29.386Z,96379.41
2022-12-15T04:38:14.717Z,96390.47
2022-12-15T04:40:59.911Z,96400.25
2022-12-15T04:43:45.307Z,96404.94
2022-12-15T04:46:30.244Z,96411.47
2022-12-15T04:49:15.518Z,96408.66
2022-12-15T04:52:00.664Z,96414.88
2022-12-15T04:54:45.842Z,96412.56
2022-12-15T04:57:30.497Z,96422.06
2022-12-15T05:00:15.280Z,96429.97
2022-12-15T05:03:00.132Z,96434.34
2022-12-15T05:05:45.083Z,96440.88
2022-12-15T05:08:30.116Z,96443.81
2022-12-15T05:11:18.262Z,96447.88
2022-12-15T05:14:03.727Z,96451.28
2022-12-15T05:16:49.035Z,96462.19
2022-12-15T05:19:34.099Z,96465.59
2022-12-15T05:22:18.921Z,96476.78
2022-12-15T05:25:03.651Z,96482.56
2022-12-15T05:27:48.505Z,96492.31
2022-12-15T05:30:33.769Z,96496.22
2022-12-15T05:33:04.457Z,96506.34
2022-12-15T05:35:30.959Z,96501.38
2022-12-15T05:37:57.498Z,96513.19
2022-12-15T05:40:24.014Z,96514.31
2022-12-15T05:42:50.517Z,96519.25
2022-12-15T05:45:17.386Z,96518.81
2022-12-15T05:47:43.940Z,96512.28
2022-12-15T05:50:10.578Z,96511.66
2022-12-15T05:52:37.091Z,96521.00
2022-12-15T05:55:03.763Z,96519.91
2022-12-15T05:57:30.266Z,96520.34
2022-12-15T05:59:56.817Z,96532.91
2022-12-15T06:02:23.380Z,96535.41
2022-12-15T06:04:49.987Z,96540.09
2022-12-15T06:07:16.649Z,96540.84
2022-12-15T06:09:43.164Z,96543.94
2022-12-15T06:12:09.710Z,96550.19
2022-12-15T06:14:36.341Z,96546.31
2022-12-15T06:17:03.023Z,96565.28
2022-12-15T06:19:29.661Z,96568.69
2022-12-15T06:21:56.237Z,96566.22
2022-12-15T06:24:22.810Z,96573.50
2022-12-15T06:26:49.644Z,96582.53
2022-12-15T06:29:16.505Z,96586.13
2022-12-15T06:31:43.115Z,96590.94
2022-12-15T06:34:14.622Z,96590.31
2022-12-15T06:36:42.391Z,96594.97
2022-12-15T06:39:12.356Z,96594.63
2022-12-15T06:41:39.687Z,96590.94
2022-12-15T06:44:06.249Z,96609.25
2022-12-15T06:46:34.985Z,96615.53
2022-12-15T06:49:01.902Z,96615.84
2022-12-15T06:51:29.179Z,96613.97
2022-12-15T06:53:56.435Z,96612.25
2022-12-15T06:56:33.968Z,96610.56
2022-12-15T06:59:03.284Z,96615.38
2022-12-15T07:01:31.018Z,96620.19
2022-12-15T07:04:01.718Z,96629.53
2022-12-15T07:06:34.204Z,96618.34
2022-12-15T07:09:00.776Z,96620.16
2022-12-15T07:11:27.336Z,96614.53
2022-12-15T07:13:54.644Z,96619.34
2022-12-15T07:16:23.025Z,96619.81
2022-12-15T07:18:49.884Z,96622.78
2022-12-15T07:21:16.666Z,96624.16
2022-12-15T07:23:54.598Z,96634.72
2022-12-15T07:26:22.194Z,96628.22
2022-12-15T07:28:48.769Z,96631.97
2022-12-15T07:31:15.774Z,96640.66
2022-12-15T07:33:42.990Z,96648.44
2022-12-15T07:36:11.092Z,96647.53
2022-12-15T07:38:38.102Z,96653.78
2022-12-15T07:41:06.884Z,96662.63
2022-12-15T07:43:34.508Z,96649.75
2022-12-15T07:46:02.059Z,96660.78
2022-12-15T07:48:29.287Z,96666.88
2022-12-15T07:51:07.318Z,96662.84
2022-12-15T07:53:36.844Z,96668.03
2022-12-15T07:56:07.983Z,96675.03
2022-12-15T07:58:36.375Z,96677.00
2022-12-15T08:01:07.235Z,96680.31
2022-12-15T08:03:35.045Z,96685.47
2022-12-15T08:06:10.264Z,96686.25
2022-12-15T08:08:37.131Z,96689.50
2022-12-15T08:11:05.803Z,96692.47
2022-12-15T08:16:21.091Z,96696.53
2022-12-15T08:18:48.693Z,96694.69
2022-12-15T08:21:15.396Z,96687.66
2022-12-15T08:23:41.921Z,96698.44
2022-12-15T08:26:17.993Z,96698.44
2022-12-15T08:28:46.003Z,96693.28
2022-12-15T08:31:16.612Z,96705.47
2022-12-15T08:33:43.684Z,96699.69
2022-12-15T08:36:13.212Z,96704.66
2022-12-15T08:38:40.694Z,96705.25
2022-12-15T08:41:10.055Z,96723.03
2022-12-15T08:43:41.127Z,96716.81
2022-12-15T08:46:13.083Z,96715.88
2022-12-15T08:48:39.826Z,96719.97
2022-12-15T08:51:06.631Z,96729.16
2022-12-15T08:53:33.145Z,96727.94
2022-12-15T08:56:08.885Z,96726.41
2022-12-15T08:58:35.447Z,96729.66
2022-12-15T09:01:12.952Z,96729.66
2022-12-15T09:03:41.346Z,96729.00
2022-12-15T09:06:13.211Z,96734.47
2022-12-15T09:08:40.007Z,96720.56
2022-12-15T09:11:06.733Z,96719.66
2022-12-15T09:13:33.972Z,96730.25
2022-12-15T09:16:13.340Z,96737.75
2022-12-15T09:18:42.597Z,96734.97
2022-12-15T09:21:14.096Z,96734.06
2022-12-15T09:23:41.081Z,96727.69
2022-12-15T09:26:14.418Z,96731.91
2022-12-15T09:28:42.841Z,96727.84
2022-12-15T09:31:15.572Z,96733.31
2022-12-15T09:33:43.904Z,96734.09
2022-12-15T09:36:13.245Z,96727.22
2022-12-15T09:38:41.410Z,96735.03
2022-12-15T09:41:33.186Z,96732.06
2022-12-15T09:44:14.677Z,96733.00
2022-12-15T09:47:16.328Z,96724.09
2022-12-15T09:49:48.287Z,96729.25
2022-12-15T09:52:19.607Z,96742.81
2022-12-15T09:54:46.602Z,96741.72
2022-12-15T09:57:37.663Z,96735.34
2022-12-15T10:00:25.675Z,96736.28
2022-12-15T10:03:20.528Z,96725.06
2022-12-15T10:06:27.066Z,96732.25
2022-12-15T10:08:58.367Z,96728.50
2022-12-15T10:11:50.444Z,96728.81
2022-12-15T10:14:27.120Z,96742.66
2022-12-15T10:16:58.578Z,96736.25
2022-12-15T10:19:43.576Z,96749.28
2022-12-15T10:22:24.199Z,96742.81
2022-12-15T10:27:56.244Z,96733.53
2022-12-15T10:30:23.278Z,96746.31
2022-12-15T10:32:50.757Z,96736.94
2022-12-15T10:35:22.291Z,96731.56
2022-12-15T10:37:50.204Z,96741.38
2022-12-15T10:40:49.963Z,96733.44
2022-12-15T10:43:36.597Z,96735.19
2022-12-15T10:46:23.748Z,96725.16
2022-12-15T10:48:51.747Z,96731.09
2022-12-15T10:51:32.387Z,96733.41
2022-12-15T10:54:01.961Z,96731.44
2022-12-15T10:56:33.597Z,96720.19
2022-12-15T10:59:30.868Z,96731.66
2022-12-15T11:02:23.103Z,96716.50
2022-12-15T11:05:17.948Z,96718.53
2022-12-15T11:07:47.543Z,96714.53
2022-12-15T11:10:24.145Z,96711.63
2022-12-15T11:13:10.757Z,96723.81
2022-12-15T11:15:43.616Z,96720.47
2022-12-15T11:18:11.321Z,96716.66
2022-12-15T11:20:42.208Z,96708.59
2022-12-15T11:23:46.775Z,96714.81
2022-12-15T11:26:46.912Z,96714.53
2022-12-15T11:29:42.844Z,96719.31
2022-12-15T11:32:12.976Z,96722.59
2022-12-15T11:34:44.469Z,96733.94
2022-12-15T11:37:19.895Z,96730.56
2022-12-15T11:39:54.497Z,96736.50
2022-12-15T11:42:48.882Z,96734.84
2022-12-15T11:45:30.043Z,96740.28
2022-12-15T11:48:01.225Z,96736.53
2022-12-15T11:50:54.233Z,96719.09
2022-12-15T11:53:45.304Z,96726.09
2022-12-15T11:56:43.009Z,96725.22
2022-12-15T11:59:35.650Z,96728.69
2022-12-15T12:02:20.897Z,96725.25
2022-12-15T12:05:25.289Z,96716.47
2022-12-15T12:08:41.336Z,96711.75
2022-12-15T12:11:15.330Z,96714.47
2022-12-15T12:14:06.683Z,96713.75
2022-12-15T12:17:01.296Z,96709.53
2022-12-15T12:19:37.324Z,96718.41
2022-12-15T12:22:14.025Z,96717.03
2022-12-15T12:25:04.523Z,96713.56
2022-12-15T12:27:50.510Z,96720.56
2022-12-15T12:30:21.292Z,96725.94
2022-12-15T12:33:03.927Z,96711.28
2022-12-15T12:35:55.306Z,96715.34
2022-12-15T12:38:50.512Z,96713.53
2022-12-15T12:41:36.788Z,96720.63
2022-12-15T12:44:21.401Z,96728.50
2022-12-15T12:46:51.870Z,96725.94
2022-12-15T12:49:30.729Z,96730.13
2022-12-15T12:52:00.902Z,96734.56
2022-12-15T12:54:52.752Z,96722.09
2022-12-15T12:57:46.090Z,96724.47
2022-12-15T13:00:17.955Z,96723.53
2022-12-15T13:02:55.242Z,96718.97
2022-12-15T13:05:23.768Z,96715.53
2022-12-15T13:08:05.074Z,96730.56
2022-12-15T13:10:34.501Z,96727.69
2022-12-15T13:13:19.090Z,96732.72
2022-12-15T13:15:51.085Z,96745.94
2022-12-15T13:18:24.258Z,96737.81
2022-12-15T13:20:55.343Z,96743.53
2022-12-15T13:23:21.860Z,96740.69
2022-12-15T13:25:57.236Z,96742.69
2022-12-15T13:28:36.338Z,96747.19
2022-12-15T13:31:21.452Z,96756.66
2022-12-15T13:33:51.097Z,96750.44
2022-12-15T13:36:42.232Z,96747.78
2022-12-15T13:39:12.390Z,96748.03
2022-12-15T13:42:07.390Z,96748.00
2022-12-15T13:44:46.728Z,96750.13
2022-12-15T13:47:16.857Z,96746.34
2022-12-15T13:50:02.355Z,96760.28
2022-12-15T13:53:16.567Z,96777.75
2022-12-15T13:55:32.295Z,96777.41
2022-12-15T13:58:02.307Z,96781.78
2022-12-15T14:00:29.306Z,96782.66
2022-12-15T14:03:12.186Z,96776.13
2022-12-15T14:05:42.949Z,96775.72
2022-12-15T14:08:14.351Z,96787.72
2022-12-15T14:10:51.221Z,96788.97
2022-12-15T14:13:25.419Z,96787.56
2022-12-15T14:16:07.325Z,96797.50
2022-12-15T14:18:35.924Z,96801.78
2022-12-15T14:21:18.213Z,96802.00
2022-12-15T14:24:11.364Z,96807.63
2022-12-15T14:26:32.393Z,96807.72
2022-12-15T14:29:02.480Z,96801.03
2022-12-15T14:31:30.216Z,96808.63
2022-12-15T14:34:07.160Z,96806.03
2022-12-15T14:36:34.626Z,96806.69
2022-12-15T14:39:01.067Z,96808.25
2022-12-15T14:41:29.857Z,96821.41
2022-12-15T14:46:48.436Z,96831.25
2022-12-15T14:49:28.505Z,96829.97
2022-12-15T14:52:03.547Z,96831.19
2022-12-15T14:54:37.570Z,96835.28
2022-12-15T14:57:14.864Z,96837.63
2022-12-15T14:59:45.081Z,96843.44
2022-12-15T15:02:16.770Z,96845.66
2022-12-15T15:03:06.024Z,96824.66
2022-12-15T15:04:43.551Z,96847.63
2022-12-15T15:07:19.269Z,96848.22
2022-12-15T15:09:47.099Z,96856.25
2022-12-15T15:12:19.310Z,96859.22
2022-12-15T15:15:00.381Z,96865.38
2022-12-15T15:17:36.316Z,96865.47
2022-12-15T15:20:08.204Z,96869.28
2022-12-15T15:22:43.712Z,96866.50
2022-12-15T15:25:40.662Z,96864.31
2022-12-15T15:28:37.669Z,96874.06
2022-12-15T15:31:41.448Z,96877.97
2022-12-15T15:34:08.871Z,96882.84
2022-12-15T15:36:38.146Z,96886.75
2022-12-15T15:39:13.167Z,96882.69
2022-12-15T15:41:39.717Z,96889.56
2022-12-15T15:44:13.751Z,96884.41
2022-12-15T15:46:47.991Z,96883.00
2022-12-15T15:49:19.406Z,96891.59
2022-12-15T15:51:46.230Z,96894.06
2022-12-15T15:54:19.520Z,96892.53
2022-12-15T15:56:46.162Z,96891.59
2022-12-15T15:59:16.460Z,96898.47
2022-12-15T16:01:45.154Z,96905.63
2022-12-15T16:04:12.364Z,96914.06
2022-12-15T16:06:45.131Z,96918.13
2022-12-15T16:09:15.362Z,96917.81
2022-12-15T16:11:42.130Z,96925.28
2022-12-15T16:14:16.873Z,96930.88
2022-12-15T16:16:44.314Z,96925.88
2022-12-15T16:19:12.352Z,96929.59
2022-12-15T16:21:40.946Z,96939.69
2022-12-15T16:24:17.611Z,96947.94
2022-12-15T16:26:48.560Z,96959.16
2022-12-15T16:29:16.828Z,96953.84
2022-12-15T16:31:46.758Z,96956.34
2022-12-15T16:34:16.666Z,96963.38
2022-12-15T16:36:44.768Z,96961.34
2022-12-15T16:39:30.890Z,96963.81
2022-12-15T16:41:57.847Z,96965.50
2022-12-15T16:44:25.933Z,96972.22
2022-12-15T16:46:52.723Z,96968.47
2022-12-15T16:49:19.282Z,96969.09
2022-12-15T16:51:48.292Z,96982.13
2022-12-15T16:54:25.865Z,96959.84
2022-12-15T16:56:54.171Z,96973.72
2022-12-15T16:59:38.638Z,96976.84
2022-12-15T17:02:20.373Z,96974.91
2022-12-15T17:04:46.988Z,96977.09
2022-12-15T17:07:19.984Z,96974.22
2022-12-15T17:09:48.916Z,96974.22
2022-12-15T17:12:17.921Z,96978.59
2022-12-15T17:14:45.056Z,96981.88
2022-12-15T17:17:16.656Z,96975.25
2022-12-15T17:19:57.943Z,96979.31
2022-12-15T17:22:30.477Z,96983.22
2022-12-15T17:24:57.113Z,96979.63
2022-12-15T17:27:29.446Z,96990.34
2022-12-15T17:29:58.958Z,96986.84
2022-12-15T17:32:25.639Z,96991.25
2022-12-15T17:34:52.304Z,97001.34
2022-12-15T17:37:18.929Z,96994.19
2022-12-15T17:39:50.946Z,97006.44
2022-12-15T17:42:20.195Z,97009.16
2022-12-15T17:44:48.581Z,97001.47
2022-12-15T17:47:16.616Z,97017.16
2022-12-15T17:49:43.697Z,97005.91
2022-12-15T17:52:30.529Z,97015.78
2022-12-15T17:54:57.456Z,97014.72
2022-12-15T17:57:24.213Z,97025.94
2022-12-15T17:59:50.773Z,97034.75
2022-12-15T18:02:17.479Z,97029.25
2022-12-15T18:04:44.732Z,97031.03
2022-12-15T18:07:21.370Z,97037.19
2022-12-15T18:09:49.107Z,97028.03
2022-12-15T18:12:29.039Z,97029.94
2022-12-15T18:14:56.219Z,97032.09
2022-12-15T18:17:23.313Z,97032.28
2022-12-15T18:19:49.907Z,97033.75
2022-12-15T18:22:22.769Z,97037.78
2022-12-15T18:24:51.826Z,97039.94
2022-12-15T18:27:29.009Z,97043.38
2022-12-15T18:29:56.584Z,97039.34
2022-12-15T18:32:25.952Z,97039.34
2022-12-15T18:34:53.553Z,97042.03
2022-12-15T18:37:23.039Z,97050.69
2022-12-15T18:39:50.710Z,97042.00
2022-12-15T18:42:19.849Z,97052.75
2022-12-15T18:44:52.084Z,97043.59
2022-12-15T18:47:21.649Z,97041.00
2022-12-15T18:49:48.322Z,97035.00
2022-12-15T18:52:16.103Z,97032.06
2022-12-15T18:54:43.172Z,97040.91
2022-12-15T18:57:30.954Z,97039.44
2022-12-15T19:00:07.872Z,97033.56
2022-12-15T19:02:34.484Z,97037.59
2022-12-15T19:05:01.134Z,97032.69
2022-12-15T19:07:27.865Z,97032.69
2022-12-15T19:09:54.713Z,97035.84
2022-12-15T19:12:21.668Z,97033.06
2022-12-15T19:14:50.559Z,97034.97
2022-12-15T19:17:38.726Z,97040.44
2022-12-15T19:20:34.831Z,97041.91
2022-12-15T19:23:01.982Z,97043.69
2022-12-15T19:25:29.723Z,97045.69
2022-12-15T19:28:00.823Z,97059.69
2022-12-15T19:30:30.174Z,97056.09
2022-12-15T19:32:57.514Z,97052.28
2022-12-15T19:35:24.897Z,97067.28
2022-12-15T19:37:55.232Z,97072.31
2022-12-15T19:40:31.165Z,97075.66
2022-12-15T19:42:59.402Z,97074.78
2022-12-15T19:45:28.746Z,97083.84
2022-12-15T19:47:56.105Z,97080.81
2022-12-15T19:50:25.578Z,97089.53
2022-12-15T19:53:01.944Z,97081.41
2022-12-15T19:55:34.840Z,97087.47
2022-12-15T19:58:22.251Z,97092.94
2022-12-15T20:00:52.202Z,97088.56
2022-12-15T20:03:20.508Z,97095.19
2022-12-15T20:05:50.813Z,97103.78
2022-12-15T20:08:29.484Z,97107.25
2022-12-15T20:10:56.984Z,97109.59
2022-12-15T20:13:23.711Z,97119.22
2022-12-15T20:15:50.275Z,97116.31
2022-12-15T20:18:16.875Z,97116.53
2022-12-15T20:20:45.650Z,97115.19
2022-12-15T20:23:22.085Z,97107.03
2022-12-15T20:25:48.742Z,97103.19
2022-12-15T20:28:21.652Z,97092.22
2022-12-15T20:30:48.940Z,97096.47
2022-12-15T20:33:16.002Z,97086.31
2022-12-15T20:35:44.778Z,97074.97
2022-12-15T20:38:32.003Z,97083.38
2022-12-15T20:41:00.209Z,97095.69
2022-12-15T20:43:31.734Z,97087.63
2022-12-15T20:46:13.299Z,97089.97
2022-12-15T20:48:40.254Z,97079.00
2022-12-15T20:51:09.748Z,97093.38
2022-12-15T20:53:37.825Z,97093.16
2022-12-15T20:56:04.760Z,97093.75
2022-12-15T20:58:33.223Z,97091.22
2022-12-15T21:01:00.612Z,97097.16
2022-12-15T21:03:28.923Z,97099.94
2022-12-15T21:05:57.368Z,97094.19
2022-12-15T21:08:29.785Z,97111.41
2022-12-15T21:11:01.496Z,97106.44
2022-12-15T21:13:31.867Z,97094.25
2022-12-15T21:15:58.754Z,97103.09
2022-12-15T21:19:17.988Z,97105.00
2022-12-15T21:21:34.990Z,97118.13
2022-12-15T21:24:07.849Z,97119.78
2022-12-15T21:26:34.394Z,97123.72
2022-12-15T21:29:02.596Z,97123.91
2022-12-15T21:31:29.266Z,97123.00
2022-12-15T21:33:55.798Z,97122.84
2022-12-15T21:36:22.428Z,97125.09
2022-12-15T21:38:51.780Z,97124.97
2022-12-15T21:41:20.792Z,97115.72
2022-12-15T21:43:47.424Z,97128.69
2022-12-15T21:46:27.716Z,97125.88
2022-12-15T21:49:14.459Z,97127.81
2022-12-15T21:51:44.408Z,97130.81
2022-12-15T21:54:28.820Z,97128.13
2022-12-15T21:56:58.018Z,97124.00
2022-12-15T21:59:28.016Z,97119.28
2022-12-15T22:01:56.060Z,97124.44
2022-12-15T22:04:31.452Z,97123.81
2022-12-15T22:06:58.162Z,97119.66
2022-12-15T22:09:24.800Z,97110.03
2022-12-15T22:11:54.154Z,97100.53
2022-12-15T22:14:30.213Z,97098.38
2022-12-15T22:16:58.601Z,97092.47
2022-12-15T22:19:25.242Z,97093.53
2022-12-15T22:24:38.342Z,97088.50
2022-12-15T22:27:04.978Z,97087.03
2022-12-15T22:29:31.765Z,97085.38
2022-12-15T22:31:58.311Z,97077.34
2022-12-15T22:34:27.599Z,97062.06
2022-12-15T22:36:54.879Z,97073.78
2022-12-15T22:39:21.665Z,97075.72
2022-12-15T22:41:50.747Z,97084.78
2022-12-15T22:44:19.500Z,97080.41
2022-12-15T22:46:47.869Z,97087.91
2022-12-15T22:49:17.577Z,97091.63
2022-12-15T22:51:44.710Z,97100.63
2022-12-15T22:54:18.080Z,97097.16
2022-12-15T22:56:45.363Z,97082.81
2022-12-15T22:59:17.522Z,97087.75
2022-12-15T23:01:44.889Z,97082.94
2022-12-15T23:04:11.576Z,97077.91
2022-12-15T23:06:38.125Z,97075.13
2022-12-15T23:09:04.846Z,97074.78
2022-12-15T23:11:37.328Z,97063.00
2022-12-15T23:14:17.453Z,97077.22
2022-12-15T23:16:46.428Z,97083.50
2022-12-15T23:19:24.913Z,97082.81
2022-12-15T23:21:52.087Z,97094.09
2022-12-15T23:24:18.750Z,97099.09
2022-12-15T23:26:45.269Z,97104.34
2022-12-15T23:29:11.868Z,97083.41
2022-12-15T23:31:38.514Z,97094.47
2022-12-15T23:34:05.389Z,97096.03
2022-12-15T23:36:31.905Z,97080.72
2022-12-15T23:38:58.402Z,97080.63
2022-12-15T23:41:25.101Z,97078.34
2022-12-15T23:43:51.640Z,97088.09
2022-12-15T23:46:18.841Z,97084.75
2022-12-15T23:48:45.544Z,97088.78
2022-12-15T23:51:21.165Z,97087.91
2022-12-15T23:53:48.220Z,97089.47
2022-12-15T23:56:17.109Z,97097.50
2022-12-15T23:58:45.008Z,97102.34
